createdAt,value
2018-06-11T00:00:23.683Z,8.80
2018-06-11T00:01:23.625Z,8.30
2018-06-11T00:02:23.566Z,7.50
2018-06-11T00:03:23.508Z,8.70
2018-06-11T00:04:23.450Z,8.30
2018-06-11T00:05:23.393Z,8.30
2018-06-11T00:06:23.328Z,8.10
2018-06-11T00:07:23.273Z,8.70
2018-06-11T00:08:23.216Z,8.10
2018-06-11T00:09:23.158Z,8.10
2018-06-11T00:10:23.098Z,8.50
2018-06-11T00:11:23.040Z,9.10
2018-06-11T00:12:22.978Z,9.00
2018-06-11T00:13:22.921Z,8.20
2018-06-11T00:14:22.862Z,8.90
2018-06-11T00:15:22.804Z,8.60
2018-06-11T00:16:22.750Z,8.90
2018-06-11T00:17:22.687Z,9.10
2018-06-11T00:18:22.636Z,8.50
2018-06-11T00:19:22.570Z,8.80
2018-06-11T00:20:22.507Z,8.90
2018-06-11T00:21:22.450Z,8.50
2018-06-11T00:22:22.396Z,8.70
2018-06-11T00:23:22.338Z,9.60
2018-06-11T00:24:22.275Z,9.40
2018-06-11T00:25:22.215Z,9.10
2018-06-11T00:26:22.156Z,8.90
2018-06-11T00:27:22.098Z,9.90
2018-06-11T00:28:22.042Z,9.40
2018-06-11T00:29:21.981Z,9.20
2018-06-11T00:30:21.923Z,9.10
2018-06-11T00:31:21.863Z,9.30
2018-06-11T00:32:21.805Z,9.40
2018-06-11T00:33:21.743Z,9.40
2018-06-11T00:34:21.684Z,9.60
2018-06-11T00:35:21.628Z,9.60
2018-06-11T00:36:21.570Z,9.20
2018-06-11T00:37:21.516Z,9.60
2018-06-11T00:38:21.449Z,10.10
2018-06-11T00:39:21.393Z,9.80
2018-06-11T00:40:21.333Z,9.80
2018-06-11T00:41:21.275Z,9.60
2018-06-11T00:42:21.215Z,9.80
2018-06-11T00:43:21.155Z,9.80
2018-06-11T00:44:21.103Z,10.40
2018-06-11T00:45:21.036Z,9.90
2018-06-11T00:46:20.977Z,10.00
2018-06-11T00:47:20.918Z,10.00
2018-06-11T00:48:20.862Z,10.30
2018-06-11T00:49:20.803Z,10.20
2018-06-11T00:50:20.746Z,10.30
2018-06-11T00:51:20.683Z,10.30
2018-06-11T00:52:20.627Z,9.40
2018-06-11T00:53:20.561Z,9.90
2018-06-11T00:54:20.507Z,9.90
2018-06-11T00:55:20.447Z,8.90
2018-06-11T00:56:20.387Z,9.70
2018-06-11T00:57:20.327Z,9.50
2018-06-11T00:58:20.268Z,9.50
2018-06-11T00:59:20.214Z,9.60
2018-06-11T01:00:20.152Z,10.20
2018-06-11T01:01:20.094Z,10.00
2018-06-11T01:02:20.034Z,9.90
2018-06-11T01:03:19.973Z,9.20
2018-06-11T01:04:19.916Z,9.30
2018-06-11T01:05:19.860Z,9.40
2018-06-11T01:06:19.795Z,8.90
2018-06-11T01:07:19.737Z,9.60
2018-06-11T01:08:19.680Z,9.60
2018-06-11T01:09:19.625Z,9.30
2018-06-11T01:10:19.559Z,9.80
2018-06-11T01:11:19.506Z,9.70
2018-06-11T01:12:19.442Z,9.40
2018-06-11T01:13:19.389Z,9.40
2018-06-11T01:14:19.326Z,9.20
2018-06-11T01:15:19.268Z,8.90
2018-06-11T01:16:19.206Z,8.80
2018-06-11T01:17:19.149Z,9.80
2018-06-11T01:18:19.090Z,8.70
2018-06-11T01:19:19.029Z,9.20
2018-06-11T01:20:18.987Z,9.30
2018-06-11T01:21:18.914Z,9.00
2018-06-11T01:22:18.856Z,8.90
2018-06-11T01:23:18.793Z,9.40
2018-06-11T01:24:18.742Z,9.10
2018-06-11T01:25:18.673Z,8.20
2018-06-11T01:26:18.616Z,9.20
2018-06-11T01:27:18.558Z,9.30
2018-06-11T01:28:18.495Z,8.90
2018-06-11T01:29:18.436Z,9.00
2018-06-11T01:30:18.381Z,8.90
2018-06-11T01:31:18.316Z,8.50
2018-06-11T01:32:18.261Z,8.00
2018-06-11T01:33:18.201Z,9.00
2018-06-11T01:34:18.141Z,8.10
2018-06-11T01:35:18.083Z,8.70
2018-06-11T01:36:18.024Z,8.40
2018-06-11T01:37:17.971Z,8.60
2018-06-11T01:38:17.910Z,8.80
2018-06-11T01:39:17.844Z,9.20
2018-06-11T01:40:17.787Z,8.70
2018-06-11T01:41:17.732Z,8.20
2018-06-11T01:42:17.667Z,9.10
2018-06-11T01:43:17.608Z,8.60
2018-06-11T01:44:17.560Z,8.50
2018-06-11T01:45:17.492Z,8.80
2018-06-11T01:46:17.434Z,8.40
2018-06-11T01:47:17.377Z,8.80
2018-06-11T01:48:17.309Z,8.40
2018-06-11T01:49:17.260Z,9.00
2018-06-11T01:50:17.194Z,8.90
2018-06-11T01:51:17.133Z,8.50
2018-06-11T01:52:17.075Z,8.80
2018-06-11T01:53:17.017Z,8.60
2018-06-11T01:54:16.958Z,8.80
2018-06-11T01:55:16.901Z,9.60
2018-06-11T01:56:16.838Z,8.50
2018-06-11T01:57:16.778Z,9.20
2018-06-11T01:58:16.719Z,8.90
2018-06-11T01:59:16.661Z,9.80
2018-06-11T02:00:16.602Z,9.40
2018-06-11T02:01:16.549Z,9.90
2018-06-11T02:02:16.482Z,10.40
2018-06-11T02:03:16.422Z,9.80
2018-06-11T02:04:16.370Z,9.80
2018-06-11T02:05:16.308Z,9.80
2018-06-11T02:06:16.248Z,9.60
2018-06-11T02:07:16.190Z,10.70
2018-06-11T02:08:16.127Z,10.20
2018-06-11T02:09:16.067Z,10.50
2018-06-11T02:10:16.006Z,10.50
2018-06-11T02:11:15.951Z,11.00
2018-06-11T02:12:15.894Z,11.40
2018-06-11T02:13:15.836Z,11.70
2018-06-11T02:14:15.771Z,11.40
2018-06-11T02:15:15.712Z,11.20
2018-06-11T02:16:15.658Z,11.40
2018-06-11T02:17:15.595Z,11.80
2018-06-11T02:18:15.540Z,12.20
2018-06-11T02:19:15.480Z,12.10
2018-06-11T02:20:15.418Z,11.40
2018-06-11T02:21:15.359Z,11.90
2018-06-11T02:22:15.294Z,11.90
2018-06-11T02:23:15.237Z,11.90
2018-06-11T02:24:15.178Z,11.30
2018-06-11T02:25:15.127Z,11.50
2018-06-11T02:26:15.063Z,11.70
2018-06-11T02:27:15.004Z,11.80
2018-06-11T02:28:14.945Z,11.50
2018-06-11T02:29:14.883Z,11.60
2018-06-11T02:30:14.829Z,11.00
2018-06-11T02:31:14.766Z,12.10
2018-06-11T02:32:14.704Z,11.60
2018-06-11T02:33:14.648Z,11.60
2018-06-11T02:34:14.584Z,11.60
2018-06-11T02:35:14.527Z,11.90
2018-06-11T02:36:14.470Z,12.10
2018-06-11T02:37:14.411Z,12.20
2018-06-11T02:38:14.353Z,11.20
2018-06-11T02:39:14.295Z,12.00
2018-06-11T02:40:14.232Z,11.80
2018-06-11T02:41:14.169Z,11.80
2018-06-11T02:42:14.116Z,11.60
2018-06-11T02:43:14.053Z,12.30
2018-06-11T02:44:14.005Z,12.00
2018-06-11T02:45:13.939Z,12.50
2018-06-11T02:46:13.875Z,12.60
2018-06-11T02:47:13.817Z,12.70
2018-06-11T02:48:13.764Z,12.10
2018-06-11T02:49:13.700Z,12.30
2018-06-11T02:50:13.640Z,12.40
2018-06-11T02:51:13.582Z,12.70
2018-06-11T02:52:13.521Z,13.40
2018-06-11T02:53:13.462Z,13.50
2018-06-11T02:54:13.404Z,13.10
2018-06-11T02:55:13.343Z,13.50
2018-06-11T02:56:13.288Z,13.20
2018-06-11T02:57:13.230Z,12.90
2018-06-11T02:58:13.167Z,13.90
2018-06-11T02:59:13.110Z,12.90
2018-06-11T03:00:13.051Z,13.30
2018-06-11T03:01:12.991Z,13.60
2018-06-11T03:02:12.931Z,13.90
2018-06-11T03:03:12.872Z,13.60
2018-06-11T03:04:12.811Z,13.90
2018-06-11T03:05:12.753Z,14.00
2018-06-11T03:06:12.693Z,13.30
2018-06-11T03:07:12.637Z,14.00
2018-06-11T03:08:12.578Z,14.00
2018-06-11T03:09:12.520Z,14.00
2018-06-11T03:10:12.460Z,14.50
2018-06-11T03:11:12.401Z,14.40
2018-06-11T03:12:12.339Z,14.30
2018-06-11T03:13:12.281Z,15.30
2018-06-11T03:14:12.224Z,14.90
2018-06-11T03:15:12.164Z,14.80
2018-06-11T03:16:12.109Z,15.00
2018-06-11T03:17:12.047Z,15.00
2018-06-11T03:18:11.984Z,15.30
2018-06-11T03:19:11.921Z,15.70
2018-06-11T03:20:11.870Z,14.10
2018-06-11T03:21:11.807Z,15.50
2018-06-11T03:22:11.751Z,14.90
2018-06-11T03:23:11.692Z,15.50
2018-06-11T03:24:11.630Z,16.80
2018-06-11T03:25:11.571Z,15.00
2018-06-11T03:26:11.516Z,15.90
2018-06-11T03:27:11.454Z,16.40
2018-06-11T03:28:11.394Z,17.00
2018-06-11T03:29:11.333Z,17.10
2018-06-11T03:30:11.278Z,18.00
2018-06-11T03:31:11.219Z,16.80
2018-06-11T03:32:11.156Z,17.30
2018-06-11T03:33:11.103Z,18.30
2018-06-11T03:34:11.039Z,19.10
2018-06-11T03:35:10.980Z,17.70
2018-06-11T03:36:10.924Z,17.10
2018-06-11T03:37:10.863Z,17.70
2018-06-11T03:38:10.800Z,17.90
2018-06-11T03:39:10.740Z,17.40
2018-06-11T03:40:10.691Z,18.40
2018-06-11T03:41:10.624Z,18.40
2018-06-11T03:42:10.564Z,19.00
2018-06-11T03:43:10.508Z,18.20
2018-06-11T03:44:10.445Z,18.70
2018-06-11T03:45:10.386Z,18.80
2018-06-11T03:46:10.326Z,18.50
2018-06-11T03:47:10.265Z,17.90
2018-06-11T03:48:10.212Z,18.70
2018-06-11T03:49:10.149Z,18.40
2018-06-11T03:50:10.088Z,19.10
2018-06-11T03:51:10.031Z,18.10
2018-06-11T03:52:09.970Z,18.80
2018-06-11T03:53:09.911Z,19.40
2018-06-11T03:54:09.856Z,19.10
2018-06-11T03:55:09.797Z,19.70
2018-06-11T03:56:09.736Z,19.40
2018-06-11T03:57:09.674Z,19.60
2018-06-11T03:58:09.614Z,27.20
2018-06-11T03:59:09.555Z,20.60
2018-06-11T04:00:09.499Z,19.40
2018-06-11T04:01:09.442Z,20.00
2018-06-11T04:02:09.379Z,20.50
2018-06-11T04:03:09.321Z,21.00
2018-06-11T04:04:09.259Z,20.70
2018-06-11T04:05:09.203Z,20.90
2018-06-11T04:06:09.142Z,20.80
2018-06-11T04:07:09.084Z,21.20
2018-06-11T04:08:09.025Z,21.10
2018-06-11T04:09:08.963Z,20.80
2018-06-11T04:10:08.904Z,21.90
2018-06-11T04:11:08.890Z,20.80
2018-06-11T04:12:08.788Z,19.80
2018-06-11T04:13:08.730Z,21.10
2018-06-11T04:14:08.670Z,21.50
2018-06-11T04:15:08.612Z,21.90
2018-06-11T04:16:08.559Z,23.00
2018-06-11T04:17:08.490Z,21.40
2018-06-11T04:18:08.430Z,22.00
2018-06-11T04:19:08.369Z,21.90
2018-06-11T04:20:08.322Z,21.80
2018-06-11T04:21:08.255Z,22.70
2018-06-11T04:22:08.194Z,21.40
2018-06-11T04:23:08.133Z,22.90
2018-06-11T04:24:08.079Z,22.10
2018-06-11T04:25:08.022Z,21.60
2018-06-11T04:26:07.963Z,22.60
2018-06-11T04:27:07.900Z,21.80
2018-06-11T04:28:07.841Z,22.60
2018-06-11T04:29:07.778Z,28.90
2018-06-11T04:30:07.723Z,22.00
2018-06-11T04:31:07.662Z,22.00
2018-06-11T04:32:07.607Z,23.60
2018-06-11T04:33:07.546Z,23.10
2018-06-11T04:34:07.489Z,23.60
2018-06-11T04:35:07.425Z,23.20
2018-06-11T04:36:07.365Z,23.50
2018-06-11T04:37:07.305Z,24.90
2018-06-11T04:38:07.251Z,23.50
2018-06-11T04:39:07.193Z,23.60
2018-06-11T04:40:07.130Z,23.60
2018-06-11T04:41:07.072Z,23.80
2018-06-11T04:42:07.013Z,23.10
2018-06-11T04:43:06.953Z,24.00
2018-06-11T04:44:06.899Z,22.40
2018-06-11T04:45:06.843Z,25.00
2018-06-11T04:46:06.778Z,23.00
2018-06-11T04:47:06.722Z,21.80
2018-06-11T04:48:06.660Z,22.90
2018-06-11T04:49:06.600Z,23.10
2018-06-11T04:50:06.540Z,23.20
2018-06-11T04:51:06.481Z,23.20
2018-06-11T04:52:06.427Z,23.20
2018-06-11T04:53:06.366Z,22.40
2018-06-11T04:54:06.311Z,22.70
2018-06-11T04:55:06.267Z,22.60
2018-06-11T04:56:06.190Z,23.40
2018-06-11T04:57:06.135Z,23.20
2018-06-11T04:58:06.081Z,22.80
2018-06-11T04:59:06.013Z,23.20
2018-06-11T05:00:05.955Z,23.50
2018-06-11T05:01:05.896Z,23.10
2018-06-11T05:02:05.835Z,23.90
2018-06-11T05:03:05.781Z,22.10
2018-06-11T05:04:05.725Z,23.40
2018-06-11T05:05:05.663Z,24.00
2018-06-11T05:06:05.606Z,22.50
2018-06-11T05:07:05.544Z,23.40
2018-06-11T05:08:05.485Z,22.60
2018-06-11T05:09:05.427Z,23.80
2018-06-11T05:10:05.379Z,24.00
2018-06-11T05:11:05.319Z,23.40
2018-06-11T05:12:05.249Z,23.40
2018-06-11T05:13:05.194Z,22.50
2018-06-11T05:14:05.131Z,21.90
2018-06-11T05:15:05.073Z,22.40
2018-06-11T05:16:05.018Z,23.00
2018-06-11T05:17:04.960Z,22.70
2018-06-11T05:18:04.900Z,22.20
2018-06-11T05:19:04.840Z,22.20
2018-06-11T05:20:04.825Z,22.70
2018-06-11T05:21:04.748Z,21.70
2018-06-11T05:22:04.665Z,22.30
2018-06-11T05:23:04.605Z,22.70
2018-06-11T05:24:04.549Z,22.70
2018-06-11T05:25:04.489Z,21.40
2018-06-11T05:26:04.429Z,22.40
2018-06-11T05:27:04.371Z,23.10
2018-06-11T05:28:04.313Z,24.10
2018-06-11T05:29:04.257Z,22.00
2018-06-11T05:30:04.198Z,22.60
2018-06-11T05:31:04.141Z,22.80
2018-06-11T05:32:04.081Z,21.10
2018-06-11T05:33:04.053Z,21.60
2018-06-11T05:34:03.960Z,22.00
2018-06-11T05:35:03.904Z,20.60
2018-06-11T05:36:03.848Z,23.00
2018-06-11T05:37:03.791Z,22.00
2018-06-11T05:38:03.784Z,22.30
2018-06-11T05:39:03.683Z,21.20
2018-06-11T05:40:03.612Z,21.00
2018-06-11T05:41:03.556Z,22.10
2018-06-11T05:42:03.500Z,28.00
2018-06-11T05:43:03.439Z,20.80
2018-06-11T05:44:03.379Z,24.10
2018-06-11T05:45:03.325Z,22.00
2018-06-11T05:46:03.266Z,20.60
2018-06-11T05:47:03.206Z,20.90
2018-06-11T05:48:03.215Z,21.00
2018-06-11T05:49:03.108Z,19.80
2018-06-11T05:50:03.035Z,20.00
2018-06-11T05:51:02.977Z,20.20
2018-06-11T05:52:02.921Z,21.40
2018-06-11T05:53:02.865Z,20.80
2018-06-11T05:54:02.802Z,22.80
2018-06-11T05:55:02.744Z,22.50
2018-06-11T05:56:02.688Z,24.90
2018-06-11T05:57:02.670Z,22.80
2018-06-11T05:58:02.569Z,27.30
2018-06-11T05:59:02.518Z,24.10
2018-06-11T06:00:02.460Z,25.20
2018-06-11T06:01:02.401Z,28.30
2018-06-11T06:02:02.343Z,30.50
2018-06-11T06:03:02.286Z,29.80
2018-06-11T06:04:02.232Z,23.20
2018-06-11T06:05:02.172Z,23.50
2018-06-11T06:06:02.114Z,23.40
2018-06-11T06:07:02.052Z,24.60
2018-06-11T06:08:01.996Z,21.70
2018-06-11T06:09:01.939Z,22.90
2018-06-11T06:10:01.879Z,21.60
2018-06-11T06:11:01.820Z,22.60
2018-06-11T06:12:01.760Z,28.10
2018-06-11T06:13:01.708Z,23.90
2018-06-11T06:14:01.651Z,24.70
2018-06-11T06:15:01.591Z,20.90
2018-06-11T06:16:01.532Z,19.60
2018-06-11T06:17:01.474Z,21.70
2018-06-11T06:18:01.417Z,20.00
2018-06-11T06:19:01.359Z,20.00
2018-06-11T06:20:01.303Z,20.70
2018-06-11T06:21:01.249Z,20.30
2018-06-11T06:22:01.188Z,24.20
2018-06-11T06:23:01.128Z,21.40
2018-06-11T06:24:01.085Z,22.90
2018-06-11T06:25:01.011Z,22.70
2018-06-11T06:26:00.956Z,22.70
2018-06-11T06:27:00.900Z,21.90
2018-06-11T06:28:00.844Z,22.50
2018-06-11T06:29:00.787Z,22.20
2018-06-11T06:30:00.734Z,22.20
2018-06-11T06:31:00.671Z,21.50
2018-06-11T06:32:00.616Z,21.50
2018-06-11T06:33:00.557Z,21.00
2018-06-11T06:34:00.499Z,21.60
2018-06-11T06:35:00.444Z,21.80
2018-06-11T06:36:00.388Z,20.70
2018-06-11T06:37:00.334Z,21.70
2018-06-11T06:38:00.267Z,23.20
2018-06-11T06:39:00.209Z,21.40
2018-06-11T06:40:00.157Z,21.60
2018-06-11T06:41:00.099Z,21.80
2018-06-11T06:42:00.040Z,19.90
2018-06-11T06:42:59.981Z,21.10
2018-06-11T06:43:59.922Z,21.00
2018-06-11T06:44:59.865Z,22.00
2018-06-11T06:45:59.809Z,20.70
2018-06-11T06:46:59.753Z,20.50
2018-06-11T06:47:59.690Z,21.90
2018-06-11T06:48:59.638Z,20.10
2018-06-11T06:49:59.576Z,21.90
2018-06-11T06:50:59.519Z,20.90
2018-06-11T06:51:59.462Z,18.20
2018-06-11T06:52:59.406Z,19.20
2018-06-11T06:53:59.350Z,20.90
2018-06-11T06:54:59.290Z,20.10
2018-06-11T06:55:59.232Z,20.80
2018-06-11T06:56:59.176Z,19.50
2018-06-11T06:57:59.115Z,21.80
2018-06-11T06:58:59.056Z,19.60
2018-06-11T06:59:59.007Z,22.00
2018-06-11T07:00:58.944Z,21.70
2018-06-11T07:01:58.886Z,22.00
2018-06-11T07:02:58.851Z,20.80
2018-06-11T07:03:58.772Z,20.30
2018-06-11T07:04:58.715Z,19.60
2018-06-11T07:05:58.657Z,17.20
2018-06-11T07:06:58.603Z,17.70
2018-06-11T07:07:58.540Z,17.70
2018-06-11T07:08:58.482Z,19.20
2018-06-11T07:09:58.424Z,19.10
2018-06-11T07:10:58.365Z,20.70
2018-06-11T07:11:58.312Z,20.40
2018-06-11T07:12:58.252Z,20.00
2018-06-11T07:13:58.213Z,19.40
2018-06-11T07:14:58.139Z,19.90
2018-06-11T07:15:58.091Z,19.00
2018-06-11T07:16:58.026Z,18.40
2018-06-11T07:17:57.965Z,19.70
2018-06-11T07:18:57.908Z,19.50
2018-06-11T07:19:57.850Z,19.80
2018-06-11T07:20:57.794Z,19.40
2018-06-11T07:21:57.732Z,19.80
2018-06-11T07:22:57.675Z,18.10
2018-06-11T07:23:57.621Z,18.40
2018-06-11T07:24:57.564Z,17.80
2018-06-11T07:25:57.505Z,17.40
2018-06-11T07:26:57.448Z,17.80
2018-06-11T07:27:57.391Z,18.20
2018-06-11T07:28:57.337Z,13.80
2018-06-11T07:29:57.277Z,18.10
2018-06-11T07:30:57.217Z,20.20
2018-06-11T07:31:57.159Z,19.70
2018-06-11T07:32:57.105Z,18.50
2018-06-11T07:33:57.042Z,19.80
2018-06-11T07:34:56.992Z,19.00
2018-06-11T07:35:56.932Z,18.80
2018-06-11T07:36:56.875Z,19.10
2018-06-11T07:37:56.816Z,17.60
2018-06-11T07:38:56.759Z,17.80
2018-06-11T07:39:56.699Z,18.40
2018-06-11T07:40:56.686Z,17.70
2018-06-11T07:41:56.586Z,17.30
2018-06-11T07:42:56.533Z,18.80
2018-06-11T07:43:56.474Z,19.50
2018-06-11T07:44:56.417Z,20.80
2018-06-11T07:45:56.359Z,18.50
2018-06-11T07:46:56.302Z,17.40
2018-06-11T07:47:56.243Z,17.60
2018-06-11T07:48:56.187Z,16.40
2018-06-11T07:49:56.128Z,23.90
2018-06-11T07:50:56.141Z,15.70
2018-06-11T07:51:56.019Z,17.40
2018-06-11T07:52:55.960Z,17.10
2018-06-11T07:53:55.899Z,18.00
2018-06-11T07:54:55.853Z,18.70
2018-06-11T07:55:55.788Z,18.10
2018-06-11T07:56:55.731Z,17.50
2018-06-11T07:57:55.673Z,18.20
2018-06-11T07:58:55.616Z,19.60
2018-06-11T07:59:55.563Z,18.40
2018-06-11T08:00:55.500Z,16.60
2018-06-11T08:01:55.443Z,18.40
2018-06-11T08:02:55.385Z,18.10
2018-06-11T08:03:55.330Z,17.00
2018-06-11T08:04:55.282Z,17.80
2018-06-11T08:05:55.215Z,20.70
2018-06-11T08:06:55.178Z,18.10
2018-06-11T08:07:55.101Z,20.90
2018-06-11T08:08:55.040Z,19.70
2018-06-11T08:09:54.995Z,22.20
2018-06-11T08:10:54.925Z,23.10
2018-06-11T08:11:54.868Z,23.20
2018-06-11T08:12:54.811Z,18.60
2018-06-11T08:13:54.755Z,20.90
2018-06-11T08:14:54.697Z,22.10
2018-06-11T08:15:54.639Z,22.80
2018-06-11T08:16:54.585Z,20.50
2018-06-11T08:17:54.524Z,22.90
2018-06-11T08:18:54.465Z,22.90
2018-06-11T08:19:54.409Z,19.80
2018-06-11T08:20:54.392Z,19.70
2018-06-11T08:21:54.296Z,17.30
2018-06-11T08:22:54.238Z,16.10
2018-06-11T08:23:54.180Z,16.70
2018-06-11T08:24:54.122Z,14.90
2018-06-11T08:25:54.068Z,14.60
2018-06-11T08:26:54.009Z,15.80
2018-06-11T08:27:53.953Z,13.30
2018-06-11T08:28:53.897Z,13.70
2018-06-11T08:29:53.843Z,13.80
2018-06-11T08:30:53.783Z,14.50
2018-06-11T08:31:53.725Z,17.80
2018-06-11T08:32:53.667Z,14.40
2018-06-11T08:33:53.616Z,16.20
2018-06-11T08:34:53.555Z,14.90
2018-06-11T08:35:53.501Z,15.90
2018-06-11T08:36:53.444Z,13.60
2018-06-11T08:37:53.385Z,11.60
2018-06-11T08:38:53.329Z,12.70
2018-06-11T08:39:53.275Z,12.00
2018-06-11T08:40:53.221Z,10.60
2018-06-11T08:41:53.163Z,11.20
2018-06-11T08:42:53.108Z,11.00
2018-06-11T08:43:53.051Z,14.20
2018-06-11T08:44:52.994Z,11.40
2018-06-11T08:45:52.941Z,11.50
2018-06-11T08:46:52.882Z,11.60
2018-06-11T08:47:52.828Z,11.90
2018-06-11T08:48:52.773Z,13.50
2018-06-11T08:49:52.724Z,14.20
2018-06-11T08:50:52.663Z,18.10
2018-06-11T08:51:52.610Z,15.90
2018-06-11T08:52:52.550Z,15.90
2018-06-11T08:53:52.494Z,21.20
2018-06-11T08:54:52.439Z,24.40
2018-06-11T08:55:52.380Z,14.80
2018-06-11T08:56:52.331Z,15.50
2018-06-11T08:57:52.270Z,15.00
2018-06-11T08:58:52.217Z,18.30
2018-06-11T08:59:52.190Z,15.70
2018-06-11T09:00:52.106Z,15.50
2018-06-11T09:01:52.048Z,19.30
2018-06-11T09:02:51.996Z,16.00
2018-06-11T09:03:52.639Z,11.90
2018-06-11T09:04:51.880Z,9.50
2018-06-11T09:05:51.823Z,18.40
2018-06-11T09:06:51.766Z,12.90
2018-06-11T09:07:51.715Z,12.30
2018-06-11T09:08:51.657Z,11.10
2018-06-11T09:09:51.600Z,10.00
2018-06-11T09:10:51.543Z,11.10
2018-06-11T09:11:51.491Z,10.40
2018-06-11T09:12:51.434Z,9.20
2018-06-11T09:13:51.380Z,8.80
2018-06-11T09:14:51.337Z,9.70
2018-06-11T09:15:51.273Z,9.50
2018-06-11T09:16:51.226Z,12.20
2018-06-11T09:17:51.161Z,16.60
2018-06-11T09:18:51.101Z,13.10
2018-06-11T09:19:51.081Z,15.00
2018-06-11T09:20:50.991Z,9.30
2018-06-11T09:21:50.936Z,17.90
2018-06-11T09:22:50.879Z,15.10
2018-06-11T09:23:50.822Z,14.20
2018-06-11T09:24:50.767Z,11.00
2018-06-11T09:25:50.713Z,12.50
2018-06-11T09:26:50.657Z,9.90
2018-06-11T09:27:50.601Z,9.30
2018-06-11T09:28:50.548Z,11.80
2018-06-11T09:29:50.489Z,10.90
2018-06-11T09:30:50.434Z,17.60
2018-06-11T09:31:50.385Z,15.00
2018-06-11T09:32:50.328Z,19.90
2018-06-11T09:33:50.271Z,10.10
2018-06-11T09:34:50.218Z,9.60
2018-06-11T09:35:50.440Z,13.40
2018-06-11T09:36:50.107Z,14.30
2018-06-11T09:37:50.051Z,13.30
2018-06-11T09:38:49.994Z,10.60
2018-06-11T09:39:49.943Z,16.00
2018-06-11T09:40:49.964Z,15.10
2018-06-11T09:41:49.829Z,13.00
2018-06-11T09:42:49.774Z,11.40
2018-06-11T09:43:49.799Z,12.80
2018-06-11T09:44:49.669Z,15.10
2018-06-11T09:45:49.616Z,13.80
2018-06-11T09:46:49.559Z,12.00
2018-06-11T09:47:49.500Z,11.10
2018-06-11T09:48:49.450Z,14.10
2018-06-11T09:49:49.394Z,9.50
2018-06-11T09:50:49.333Z,12.00
2018-06-11T09:51:49.281Z,9.10
2018-06-11T09:52:49.227Z,8.00
2018-06-11T09:53:49.174Z,8.20
2018-06-11T09:54:49.131Z,11.10
2018-06-11T09:55:49.101Z,10.30
2018-06-11T09:56:49.004Z,15.10
2018-06-11T09:57:48.950Z,11.80
2018-06-11T09:58:48.919Z,12.20
2018-06-11T09:59:48.861Z,9.90
2018-06-11T10:00:48.787Z,8.40
2018-06-11T10:01:48.725Z,8.10
2018-06-11T10:02:48.682Z,10.70
2018-06-11T10:03:48.614Z,11.20
2018-06-11T10:04:48.562Z,11.30
2018-06-11T10:05:48.530Z,9.80
2018-06-11T10:06:48.450Z,13.70
2018-06-11T10:07:48.395Z,14.70
2018-06-11T10:08:48.337Z,11.80
2018-06-11T10:09:48.282Z,12.40
2018-06-11T10:10:48.225Z,13.20
2018-06-11T10:11:48.174Z,11.40
2018-06-11T10:12:48.153Z,10.40
2018-06-11T10:13:48.058Z,8.90
2018-06-11T10:14:48.004Z,10.50
2018-06-11T10:15:47.947Z,11.00
2018-06-11T10:16:47.895Z,10.50
2018-06-11T10:17:47.840Z,13.90
2018-06-11T10:18:47.782Z,11.00
2018-06-11T10:19:47.723Z,11.00
2018-06-11T10:20:47.668Z,11.00
2018-06-11T10:21:47.617Z,12.70
2018-06-11T10:22:47.557Z,10.50
2018-06-11T10:23:47.500Z,6.90
2018-06-11T10:24:47.458Z,7.90
2018-06-11T10:25:47.393Z,8.90
2018-06-11T10:26:47.330Z,15.20
2018-06-11T10:27:47.275Z,12.90
2018-06-11T10:28:47.219Z,17.10
2018-06-11T10:29:47.161Z,13.50
2018-06-11T10:30:47.107Z,12.40
2018-06-11T10:31:47.047Z,7.30
2018-06-11T10:32:46.990Z,8.20
2018-06-11T10:33:46.934Z,5.50
2018-06-11T10:34:46.877Z,9.40
2018-06-11T10:35:46.825Z,11.30
2018-06-11T10:36:46.769Z,14.60
2018-06-11T10:37:46.709Z,10.00
2018-06-11T10:38:46.655Z,8.10
2018-06-11T10:39:46.596Z,14.90
2018-06-11T10:40:46.538Z,8.50
2018-06-11T10:41:46.480Z,10.20
2018-06-11T10:42:46.426Z,9.70
2018-06-11T10:43:46.367Z,9.40
2018-06-11T10:44:46.312Z,10.10
2018-06-11T10:45:46.252Z,10.10
2018-06-11T10:46:46.196Z,9.40
2018-06-11T10:47:46.141Z,11.90
2018-06-11T10:48:46.091Z,12.10
2018-06-11T10:49:46.027Z,8.30
2018-06-11T10:50:45.972Z,10.50
2018-06-11T10:51:45.914Z,5.60
2018-06-11T10:52:45.855Z,6.40
2018-06-11T10:53:45.800Z,5.50
2018-06-11T10:54:45.740Z,4.80
2018-06-11T10:55:45.684Z,5.10
2018-06-11T10:56:45.628Z,10.90
2018-06-11T10:57:45.571Z,12.90
2018-06-11T10:58:45.515Z,13.40
2018-06-11T10:59:45.453Z,10.70
2018-06-11T11:00:45.399Z,5.50
2018-06-11T11:01:45.348Z,8.30
2018-06-11T11:02:45.284Z,5.90
2018-06-11T11:03:45.227Z,9.90
2018-06-11T11:04:45.171Z,6.60
2018-06-11T11:05:45.112Z,4.30
2018-06-11T11:06:45.056Z,4.50
2018-06-11T11:07:45.000Z,4.90
2018-06-11T11:08:44.961Z,4.10
2018-06-11T11:09:44.890Z,4.00
2018-06-11T11:10:44.833Z,4.60
2018-06-11T11:11:44.777Z,4.70
2018-06-11T11:12:44.720Z,5.10
2018-06-11T11:13:44.662Z,4.30
2018-06-11T11:14:44.617Z,5.30
2018-06-11T11:15:44.556Z,5.30
2018-06-11T11:16:44.501Z,5.50
2018-06-11T11:17:44.454Z,4.90
2018-06-11T11:18:44.392Z,5.40
2018-06-11T11:19:44.339Z,4.90
2018-06-11T11:20:44.286Z,6.00
2018-06-11T11:21:44.231Z,5.70
2018-06-11T11:22:44.179Z,5.30
2018-06-11T11:23:44.126Z,5.30
2018-06-11T11:24:44.071Z,5.20
2018-06-11T11:25:44.019Z,5.20
2018-06-11T11:26:43.965Z,4.60
2018-06-11T11:27:43.919Z,4.80
2018-06-11T11:28:43.867Z,4.60
2018-06-11T11:29:43.815Z,4.30
2018-06-11T11:30:43.778Z,4.20
2018-06-11T11:31:43.713Z,5.10
2018-06-11T11:32:43.663Z,4.90
2018-06-11T11:33:43.625Z,4.70
2018-06-11T11:34:43.567Z,4.20
2018-06-11T11:35:43.515Z,4.70
2018-06-11T11:36:43.466Z,4.80
2018-06-11T11:37:43.416Z,4.80
2018-06-11T11:38:43.369Z,4.90
2018-06-11T11:39:43.325Z,4.90
2018-06-11T11:40:43.276Z,4.40
2018-06-11T11:41:43.227Z,4.60
2018-06-11T11:42:43.183Z,4.70
2018-06-11T11:43:43.172Z,4.30
2018-06-11T11:44:43.087Z,4.30
2018-06-11T11:45:43.041Z,4.20
2018-06-11T11:46:42.992Z,4.60
2018-06-11T11:47:42.957Z,4.60
2018-06-11T11:48:42.902Z,4.50
2018-06-11T11:49:42.854Z,4.60
2018-06-11T11:50:42.806Z,4.70
2018-06-11T11:51:42.766Z,4.10
2018-06-11T11:52:42.720Z,4.20
2018-06-11T11:53:42.671Z,4.20
2018-06-11T11:54:42.629Z,3.70
2018-06-11T11:55:42.584Z,3.50
2018-06-11T11:56:42.537Z,4.00
2018-06-11T11:57:42.492Z,4.50
2018-06-11T11:58:42.448Z,4.90
2018-06-11T11:59:42.406Z,4.00
2018-06-11T12:00:42.361Z,4.20
2018-06-11T12:01:42.357Z,4.00
2018-06-11T12:02:42.272Z,4.20
2018-06-11T12:03:42.227Z,3.70
2018-06-11T12:04:42.183Z,3.90
2018-06-11T12:05:42.137Z,3.70
2018-06-11T12:06:42.098Z,4.00
2018-06-11T12:07:42.108Z,4.10
2018-06-11T12:08:42.008Z,3.90
2018-06-11T12:09:41.966Z,3.30
2018-06-11T12:10:41.917Z,3.70
2018-06-11T12:11:41.883Z,3.50
2018-06-11T12:12:41.834Z,3.60
2018-06-11T12:13:41.793Z,3.80
2018-06-11T12:14:41.750Z,3.50
2018-06-11T12:15:41.703Z,3.70
2018-06-11T12:16:41.655Z,3.80
2018-06-11T12:17:41.611Z,4.00
2018-06-11T12:18:41.565Z,3.90
2018-06-11T12:19:41.525Z,4.00
2018-06-11T12:20:41.482Z,3.90
2018-06-11T12:21:41.440Z,4.60
2018-06-11T12:22:41.389Z,3.90
2018-06-11T12:23:41.349Z,3.90
2018-06-11T12:24:41.306Z,3.70
2018-06-11T12:25:41.260Z,3.90
2018-06-11T12:26:41.218Z,3.80
2018-06-11T12:27:41.173Z,3.80
2018-06-11T12:28:41.127Z,4.40
2018-06-11T12:29:41.084Z,3.90
2018-06-11T12:30:41.040Z,4.00
2018-06-11T12:31:41.021Z,3.40
2018-06-11T12:32:40.953Z,3.90
2018-06-11T12:33:40.956Z,3.90
2018-06-11T12:34:40.937Z,3.50
2018-06-11T12:35:40.830Z,4.30
2018-06-11T12:36:40.786Z,3.30
2018-06-11T12:37:40.746Z,3.70
2018-06-11T12:38:40.697Z,3.10
2018-06-11T12:39:40.655Z,3.20
2018-06-11T12:40:40.611Z,3.10
2018-06-11T12:41:40.574Z,3.20
2018-06-11T12:42:40.526Z,3.20
2018-06-11T12:43:40.576Z,3.20
2018-06-11T12:44:40.478Z,3.30
2018-06-11T12:45:40.414Z,3.10
2018-06-11T12:46:40.362Z,3.00
2018-06-11T12:47:40.337Z,3.30
2018-06-11T12:48:40.278Z,3.70
2018-06-11T12:49:40.235Z,3.30
2018-06-11T12:50:40.193Z,3.20
2018-06-11T12:51:40.158Z,3.20
2018-06-11T12:52:40.160Z,3.30
2018-06-11T12:53:40.072Z,3.20
2018-06-11T12:54:40.026Z,3.00
2018-06-11T12:55:39.986Z,3.10
2018-06-11T12:56:39.946Z,3.20
2018-06-11T12:57:39.909Z,3.20
2018-06-11T12:58:39.863Z,3.00
2018-06-11T12:59:39.820Z,3.00
2018-06-11T13:00:39.783Z,3.20